AAL9603 KLAX-EGLL
Flight info
| Callsign | AAL9603 |
|---|---|
| Flight time | N/A |
| Altitude | 37000 |
| Route | ORCKA5 LAS DCT BAWER DCT KU51Q DCT DBL J60 DVV DCT OBH DCT ALO DCT BAE DCT DAYYY DCT 46N078W DCT BAREE/N0484F390 N581A TUDEP/M084F400 NATT BEXET/N0489F410 DCT LIFFY UL975 MALUD Q38 NUGRA |
| Aircraft | B772/H-SDE2E3FGHIJ5LORVWXY/LB1D1 |
Departure
| Time | 2026-05-07 23:11 |
|---|---|
| Airport | Los Angeles International Airport (KLAX) |
Arrival
| Time | N/A |
|---|---|
| Airport | London Heathrow Airport (EGLL) |
| Time | Latitude | Longitude | Altitude | Speed | Heading |
|---|---|---|---|---|---|
| 2026-05-07 22:49 | 33.94023 | -118.40927 | 96 ft | 0 kts | 264° |
| 2026-05-07 22:58 | 33.94025 | -118.40907 | 96 ft | 4 kts | 263° |
| 2026-05-07 22:59 | 33.94028 | -118.40878 | 97 ft | 2 kts | 262° |
| 2026-05-07 22:59 | 33.94034 | -118.40850 | 96 ft | 4 kts | 232° |
| 2026-05-07 22:59 | 33.94054 | -118.40834 | 96 ft | 4 kts | 187° |
| 2026-05-07 22:59 | 33.94073 | -118.40833 | 96 ft | 0 kts | 173° |
| 2026-05-07 23:02 | 33.94062 | -118.40832 | 107 ft | 8 kts | 173° |
| 2026-05-07 23:02 | 33.94001 | -118.40822 | 99 ft | 9 kts | 173° |
| 2026-05-07 23:02 | 33.93938 | -118.40813 | 98 ft | 9 kts | 172° |
| 2026-05-07 23:03 | 33.93885 | -118.40777 | 99 ft | 9 kts | 141° |
| 2026-05-07 23:03 | 33.93835 | -118.40731 | 101 ft | 9 kts | 140° |
| 2026-05-07 23:03 | 33.93815 | -118.40663 | 101 ft | 9 kts | 92° |
| 2026-05-07 23:03 | 33.93818 | -118.40587 | 99 ft | 9 kts | 84° |
| 2026-05-07 23:04 | 33.93826 | -118.40512 | 102 ft | 9 kts | 83° |
| 2026-05-07 23:04 | 33.93834 | -118.40434 | 99 ft | 11 kts | 83° |
| 2026-05-07 23:04 | 33.93844 | -118.40331 | 100 ft | 13 kts | 83° |
| 2026-05-07 23:04 | 33.93856 | -118.40217 | 100 ft | 15 kts | 83° |
| 2026-05-07 23:05 | 33.93869 | -118.40094 | 102 ft | 15 kts | 83° |
| 2026-05-07 23:05 | 33.93882 | -118.39972 | 101 ft | 15 kts | 83° |
| 2026-05-07 23:05 | 33.93894 | -118.39849 | 101 ft | 15 kts | 83° |
| 2026-05-07 23:05 | 33.93906 | -118.39726 | 99 ft | 15 kts | 83° |
| 2026-05-07 23:06 | 33.93918 | -118.39604 | 99 ft | 15 kts | 83° |
| 2026-05-07 23:06 | 33.93931 | -118.39481 | 99 ft | 15 kts | 82° |
| 2026-05-07 23:06 | 33.93944 | -118.39359 | 99 ft | 15 kts | 83° |
| 2026-05-07 23:06 | 33.93957 | -118.39236 | 99 ft | 15 kts | 83° |
| 2026-05-07 23:07 | 33.93969 | -118.39112 | 100 ft | 15 kts | 83° |
| 2026-05-07 23:07 | 33.93983 | -118.38973 | 100 ft | 18 kts | 83° |
| 2026-05-07 23:07 | 33.94000 | -118.38812 | 101 ft | 20 kts | 83° |
| 2026-05-07 23:07 | 33.94017 | -118.38647 | 102 ft | 20 kts | 83° |
| 2026-05-07 23:08 | 33.94034 | -118.38481 | 102 ft | 20 kts | 83° |
| 2026-05-07 23:08 | 33.94051 | -118.38319 | 101 ft | 19 kts | 83° |
| 2026-05-07 23:08 | 33.94064 | -118.38182 | 98 ft | 14 kts | 83° |
| 2026-05-07 23:08 | 33.94075 | -118.38081 | 97 ft | 8 kts | 83° |
| 2026-05-07 23:09 | 33.94079 | -118.38040 | 97 ft | 3 kts | 83° |
| 2026-05-07 23:09 | 33.94076 | -118.38016 | 97 ft | 1 kts | 114° |
| 2026-05-07 23:09 | 33.94075 | -118.38015 | 97 ft | 0 kts | 116° |
| 2026-05-07 23:09 | 33.94066 | -118.38007 | 99 ft | 3 kts | 149° |
| 2026-05-07 23:10 | 33.94033 | -118.38000 | 98 ft | 6 kts | 172° |
| 2026-05-07 23:10 | 33.93990 | -118.38021 | 101 ft | 8 kts | 237° |
| 2026-05-07 23:10 | 33.93972 | -118.38138 | 99 ft | 29 kts | 263° |
| 2026-05-07 23:10 | 33.93923 | -118.38624 | 102 ft | 89 kts | 263° |
| 2026-05-07 23:11 | 33.93823 | -118.39593 | 104 ft | 142 kts | 263° |
| 2026-05-07 23:11 | 33.93700 | -118.40900 | 382 ft | 161 kts | 262° |
| 2026-05-07 23:11 | 33.93546 | -118.42234 | 1001 ft | 162 kts | 262° |
| 2026-05-07 23:11 | 33.93411 | -118.43607 | 1586 ft | 171 kts | 264° |
| 2026-05-07 23:12 | 33.93272 | -118.45075 | 2141 ft | 182 kts | 265° |
| 2026-05-07 23:12 | 33.93126 | -118.46650 | 2618 ft | 196 kts | 265° |
| 2026-05-07 23:12 | 33.92970 | -118.48334 | 2990 ft | 209 kts | 264° |
| 2026-05-07 23:12 | 33.92806 | -118.50121 | 3378 ft | 223 kts | 264° |
| 2026-05-07 23:13 | 33.92631 | -118.52041 | 3583 ft | 245 kts | 264° |
| 2026-05-07 23:13 | 33.92440 | -118.54115 | 4086 ft | 254 kts | 264° |
| 2026-05-07 23:13 | 33.92244 | -118.56239 | 4782 ft | 255 kts | 264° |
| 2026-05-07 23:13 | 33.92047 | -118.58378 | 5426 ft | 260 kts | 264° |
| 2026-05-07 23:14 | 33.91844 | -118.60580 | 5994 ft | 267 kts | 264° |
| 2026-05-07 23:14 | 33.91638 | -118.62809 | 6619 ft | 272 kts | 264° |
| 2026-05-07 23:14 | 33.91412 | -118.65060 | 7221 ft | 273 kts | 259° |
| 2026-05-07 23:14 | 33.90600 | -118.67137 | 7683 ft | 281 kts | 230° |
| 2026-05-07 23:15 | 33.89022 | -118.68572 | 8179 ft | 292 kts | 202° |
| 2026-05-07 23:15 | 33.87037 | -118.69079 | 8808 ft | 295 kts | 179° |
| 2026-05-07 23:15 | 33.85026 | -118.68553 | 9341 ft | 300 kts | 153° |
| 2026-05-07 23:15 | 33.83391 | -118.67038 | 9947 ft | 298 kts | 125° |
| 2026-05-07 23:16 | 33.82476 | -118.64811 | 10338 ft | 303 kts | 99° |
| 2026-05-07 23:16 | 33.82456 | -118.62238 | 10488 ft | 318 kts | 75° |
| 2026-05-07 23:16 | 33.83265 | -118.59698 | 10636 ft | 335 kts | 59° |
| 2026-05-07 23:16 | 33.84612 | -118.57305 | 10800 ft | 356 kts | 51° |
| 2026-05-07 23:17 | 33.86164 | -118.54909 | 11250 ft | 367 kts | 51° |
| 2026-05-07 23:17 | 33.87740 | -118.52473 | 11939 ft | 372 kts | 52° |
| 2026-05-07 23:17 | 33.89294 | -118.49985 | 12785 ft | 372 kts | 53° |
| 2026-05-07 23:17 | 33.90824 | -118.47457 | 13542 ft | 375 kts | 53° |
| 2026-05-07 23:18 | 33.92351 | -118.44898 | 14308 ft | 378 kts | 54° |
| 2026-05-07 23:18 | 33.93873 | -118.42307 | 15054 ft | 380 kts | 55° |
| 2026-05-07 23:18 | 33.95375 | -118.39658 | 15695 ft | 385 kts | 56° |
| 2026-05-07 23:18 | 33.96885 | -118.36969 | 16353 ft | 391 kts | 56° |
| 2026-05-07 23:19 | 33.98421 | -118.34245 | 17041 ft | 395 kts | 55° |
| 2026-05-07 23:19 | 33.99979 | -118.31490 | 17712 ft | 400 kts | 55° |
| 2026-05-07 23:19 | 34.01567 | -118.28688 | 18275 ft | 408 kts | 55° |
| 2026-05-07 23:19 | 34.03175 | -118.25853 | 18947 ft | 411 kts | 55° |
| 2026-05-07 23:20 | 34.04794 | -118.22997 | 19553 ft | 416 kts | 55° |
| 2026-05-07 23:20 | 34.06428 | -118.20113 | 20249 ft | 417 kts | 55° |
| 2026-05-07 23:20 | 34.08072 | -118.17208 | 20893 ft | 421 kts | 54° |
| 2026-05-07 23:20 | 34.09729 | -118.14278 | 21445 ft | 427 kts | 55° |